createdAt,value
2022-08-07T00:02:35.557Z,23.00
2022-08-07T00:04:15.406Z,23.20
2022-08-07T00:06:51.667Z,23.10
2022-08-07T00:09:26.638Z,23.00
2022-08-07T00:12:00.765Z,23.00
2022-08-07T00:14:31.647Z,22.90
2022-08-07T00:17:01.914Z,23.00
2022-08-07T00:20:01.532Z,23.20
2022-08-07T00:22:24.361Z,23.30
2022-08-07T00:25:15.813Z,23.30
2022-08-07T00:27:53.305Z,23.40
2022-08-07T00:30:27.083Z,23.40
2022-08-07T00:32:59.357Z,23.40
2022-08-07T00:35:29.700Z,23.40
2022-08-07T00:37:59.343Z,23.50
2022-08-07T00:40:36.388Z,23.60
2022-08-07T00:43:14.058Z,23.60
2022-08-07T00:45:59.277Z,23.60
2022-08-07T00:48:31.011Z,23.50
2022-08-07T00:51:01.198Z,23.30
2022-08-07T00:53:39.426Z,23.20
2022-08-07T00:56:17.332Z,23.10
2022-08-07T00:58:46.747Z,23.10
2022-08-07T01:01:15.442Z,23.10
2022-08-07T01:03:55.738Z,23.10
2022-08-07T01:06:26.652Z,23.20
2022-08-07T01:08:56.186Z,23.20
2022-08-07T01:12:10.297Z,23.00
2022-08-07T01:14:15.451Z,22.80
2022-08-07T01:16:46.829Z,22.70
2022-08-07T01:19:19.972Z,22.70
2022-08-07T01:21:53.481Z,22.80
2022-08-07T01:24:30.713Z,22.80
2022-08-07T01:27:00.995Z,22.40
2022-08-07T01:29:34.116Z,22.40
2022-08-07T01:32:05.197Z,22.50
2022-08-07T01:34:35.745Z,22.70
2022-08-07T01:37:17.276Z,22.80
2022-08-07T01:39:48.513Z,22.90
2022-08-07T01:42:55.104Z,23.00
2022-08-07T01:45:33.151Z,22.90
2022-08-07T01:48:20.951Z,22.90
2022-08-07T01:51:24.727Z,22.70
2022-08-07T01:54:09.534Z,22.60
2022-08-07T01:56:53.266Z,22.70
2022-08-07T01:59:31.021Z,22.70
2022-08-07T02:02:06.475Z,22.70
2022-08-07T02:04:55.691Z,22.80
2022-08-07T02:07:35.904Z,22.80
2022-08-07T02:10:14.330Z,22.40
2022-08-07T02:12:46.416Z,22.40
2022-08-07T02:15:26.370Z,22.50
2022-08-07T02:17:57.562Z,22.60
2022-08-07T02:20:30.502Z,22.70
2022-08-07T02:23:02.355Z,22.80
2022-08-07T02:26:32.365Z,22.80
2022-08-07T02:28:25.587Z,22.80
2022-08-07T02:30:59.537Z,22.80
2022-08-07T02:34:01.878Z,22.60
2022-08-07T02:36:29.775Z,22.50
2022-08-07T02:39:16.058Z,22.50
2022-08-07T02:41:54.195Z,22.60
2022-08-07T02:44:27.635Z,22.60
2022-08-07T02:47:04.953Z,22.60
2022-08-07T02:49:58.784Z,22.30
2022-08-07T02:52:40.420Z,22.10
2022-08-07T02:55:28.537Z,22.10
2022-08-07T02:58:13.632Z,22.20
2022-08-07T03:00:47.425Z,22.10
2022-08-07T03:03:22.621Z,22.00
2022-08-07T03:05:54.966Z,22.00
2022-08-07T03:08:29.417Z,21.90
2022-08-07T03:11:00.956Z,21.90
2022-08-07T03:13:39.288Z,21.20
2022-08-07T03:16:23.021Z,21.10
2022-08-07T03:19:00.368Z,21.00
2022-08-07T03:21:32.820Z,21.30
2022-08-07T03:24:21.038Z,21.50
2022-08-07T03:26:58.587Z,21.80
2022-08-07T03:29:46.078Z,21.90
2022-08-07T03:32:34.352Z,21.90
2022-08-07T03:35:18.462Z,22.10
2022-08-07T03:38:04.728Z,22.10
2022-08-07T03:40:36.486Z,22.20
2022-08-07T03:43:14.444Z,22.30
2022-08-07T03:45:49.733Z,22.00
2022-08-07T03:48:22.630Z,21.40
2022-08-07T03:50:55.978Z,21.20
2022-08-07T03:54:05.932Z,21.30
2022-08-07T03:56:33.328Z,21.50
2022-08-07T03:59:09.636Z,21.60
2022-08-07T04:01:45.790Z,21.50
2022-08-07T04:04:19.538Z,21.70
2022-08-07T04:06:52.895Z,21.80
2022-08-07T04:09:24.554Z,21.90
2022-08-07T04:12:24.397Z,21.90
2022-08-07T04:14:49.208Z,22.00
2022-08-07T04:17:20.838Z,22.10
2022-08-07T04:20:12.396Z,22.20
2022-08-07T04:22:53.553Z,22.00
2022-08-07T04:25:24.066Z,21.50
2022-08-07T04:28:00.296Z,21.40
2022-08-07T04:30:35.899Z,21.50
2022-08-07T04:33:21.805Z,21.50
2022-08-07T04:35:53.265Z,21.50
2022-08-07T04:38:26.697Z,21.10
2022-08-07T04:40:56.796Z,21.10
2022-08-07T04:44:10.199Z,21.30
2022-08-07T04:46:51.323Z,21.70
2022-08-07T04:49:38.417Z,21.90
2022-08-07T04:52:12.264Z,22.10
2022-08-07T04:54:58.069Z,22.40
2022-08-07T04:58:14.766Z,22.50
2022-08-07T05:01:15.779Z,22.20
2022-08-07T05:04:07.158Z,22.00
2022-08-07T05:06:51.504Z,22.20
2022-08-07T05:09:46.206Z,22.30
2022-08-07T05:12:30.449Z,22.50
2022-08-07T05:15:23.588Z,22.60
2022-08-07T05:18:09.151Z,22.70
2022-08-07T05:20:44.351Z,22.80
2022-08-07T05:23:23.174Z,23.00
2022-08-07T05:26:11.524Z,23.10
2022-08-07T05:28:46.667Z,23.20
2022-08-07T05:31:24.193Z,23.20
2022-08-07T05:34:05.884Z,23.20
2022-08-07T05:36:49.029Z,23.40
2022-08-07T05:40:18.070Z,23.60
2022-08-07T05:42:34.947Z,23.80
2022-08-07T05:45:14.594Z,24.10
2022-08-07T05:48:01.132Z,24.20
2022-08-07T05:50:34.375Z,24.40
2022-08-07T05:53:04.394Z,24.20
2022-08-07T05:56:02.819Z,24.30
2022-08-07T05:58:36.126Z,24.40
2022-08-07T06:01:10.791Z,24.50
2022-08-07T06:03:56.598Z,24.40
2022-08-07T06:06:30.006Z,24.40
2022-08-07T06:09:09.902Z,24.50
2022-08-07T06:11:42.751Z,24.70
2022-08-07T06:14:20.899Z,25.00
2022-08-07T06:16:57.110Z,25.00
2022-08-07T06:19:51.778Z,25.00
2022-08-07T06:22:27.833Z,25.00
2022-08-07T06:25:11.492Z,25.20
2022-08-07T06:28:00.372Z,25.30
2022-08-07T06:30:37.956Z,25.50
2022-08-07T06:33:16.159Z,25.60
2022-08-07T06:36:06.817Z,25.70
2022-08-07T06:38:58.673Z,25.60
2022-08-07T06:42:02.440Z,25.60
2022-08-07T06:44:51.179Z,25.50
2022-08-07T06:47:22.140Z,25.40
2022-08-07T06:49:58.426Z,25.50
2022-08-07T06:52:37.866Z,25.60
2022-08-07T06:55:33.325Z,25.70
2022-08-07T06:58:12.672Z,25.90
2022-08-07T07:00:52.928Z,26.00
2022-08-07T07:03:40.095Z,26.20
2022-08-07T07:06:11.225Z,26.40
2022-08-07T07:08:48.815Z,26.60
2022-08-07T07:12:08.389Z,26.70
2022-08-07T07:14:10.149Z,26.70
2022-08-07T07:16:49.767Z,26.80
2022-08-07T07:19:57.052Z,26.70
2022-08-07T07:22:37.000Z,26.70
2022-08-07T07:26:32.175Z,26.90
2022-08-07T07:28:29.852Z,27.20
2022-08-07T07:31:05.061Z,27.30
2022-08-07T07:33:38.486Z,27.50
2022-08-07T07:36:13.441Z,27.50
2022-08-07T07:38:46.250Z,27.50
2022-08-07T07:41:17.741Z,27.70
2022-08-07T07:44:14.533Z,27.70
2022-08-07T07:46:55.729Z,27.90
2022-08-07T07:50:33.398Z,28.00
2022-08-07T07:52:18.616Z,28.00
2022-08-07T07:54:50.680Z,28.10
2022-08-07T07:57:44.108Z,28.30
2022-08-07T08:00:15.076Z,28.30
2022-08-07T08:04:06.004Z,28.30
2022-08-07T08:06:06.730Z,28.50
2022-08-07T08:08:42.150Z,28.50
2022-08-07T08:11:16.153Z,28.60
2022-08-07T08:13:53.910Z,28.70
2022-08-07T08:16:35.868Z,28.90
2022-08-07T08:19:18.170Z,28.90
2022-08-07T08:22:13.393Z,28.90
2022-08-07T08:25:24.674Z,29.10
2022-08-07T08:27:55.926Z,29.30
2022-08-07T08:30:25.982Z,29.40
2022-08-07T08:32:57.355Z,29.70
2022-08-07T08:35:28.856Z,29.70
2022-08-07T08:38:09.986Z,29.50
2022-08-07T08:40:58.481Z,29.50
2022-08-07T08:43:43.263Z,29.70
2022-08-07T08:46:32.585Z,29.90
2022-08-07T08:49:46.902Z,29.90
2022-08-07T08:52:53.626Z,29.90
2022-08-07T08:55:53.891Z,30.10
2022-08-07T08:58:43.987Z,30.50
2022-08-07T09:01:21.589Z,30.50
2022-08-07T09:04:25.917Z,30.50
2022-08-07T09:07:27.134Z,30.80
2022-08-07T09:10:29.006Z,31.20
2022-08-07T09:13:14.859Z,31.40
2022-08-07T09:16:25.160Z,31.40
2022-08-07T09:19:07.063Z,31.60
2022-08-07T09:24:28.695Z,31.30
2022-08-07T09:25:38.657Z,31.50
2022-08-07T09:32:17.150Z,32.00
2022-08-07T09:34:55.542Z,32.50
2022-08-07T09:37:48.384Z,32.50
2022-08-07T09:40:35.805Z,32.50
2022-08-07T09:44:05.887Z,32.70
2022-08-07T09:47:51.948Z,32.40
2022-08-07T09:50:19.012Z,32.20
2022-08-07T09:53:14.510Z,32.40
2022-08-07T09:56:06.606Z,32.50
2022-08-07T09:58:42.189Z,32.60
2022-08-07T10:01:51.524Z,32.60
2022-08-07T10:04:52.937Z,32.50
2022-08-07T10:07:52.220Z,32.70
2022-08-07T10:11:17.121Z,33.30
2022-08-07T10:14:00.686Z,33.30
2022-08-07T10:16:48.345Z,33.60
2022-08-07T10:19:55.586Z,34.00
2022-08-07T10:22:50.823Z,34.30
2022-08-07T10:25:24.345Z,34.40
2022-08-07T10:28:37.923Z,34.70
2022-08-07T10:31:50.765Z,34.40
2022-08-07T10:34:50.827Z,34.30
2022-08-07T10:38:00.655Z,33.90
2022-08-07T10:40:24.170Z,34.20
2022-08-07T10:43:09.880Z,34.20
2022-08-07T10:45:57.483Z,34.40
2022-08-07T10:48:58.155Z,34.50
2022-08-07T10:52:01.590Z,34.40
2022-08-07T10:54:41.175Z,34.90
2022-08-07T10:57:56.108Z,34.90
2022-08-07T11:00:39.751Z,35.00
2022-08-07T11:03:17.403Z,35.00
2022-08-07T11:06:08.563Z,35.20
2022-08-07T11:08:56.336Z,35.40
2022-08-07T11:11:39.838Z,35.10
2022-08-07T11:14:59.759Z,35.20
2022-08-07T11:17:43.430Z,35.90
2022-08-07T11:20:24.918Z,35.70
2022-08-07T11:23:09.112Z,35.60
2022-08-07T11:26:16.326Z,35.50
2022-08-07T11:28:55.576Z,35.50
2022-08-07T11:31:35.500Z,36.10
2022-08-07T11:34:24.893Z,36.10
2022-08-07T11:37:03.117Z,36.10
2022-08-07T11:40:00.234Z,35.70
2022-08-07T11:42:59.052Z,35.60
2022-08-07T11:45:53.281Z,35.90
2022-08-07T11:49:50.751Z,36.10
2022-08-07T11:52:29.067Z,35.60
2022-08-07T11:56:09.274Z,35.70
2022-08-07T11:58:33.165Z,36.00
2022-08-07T12:01:20.326Z,36.30
2022-08-07T12:04:12.828Z,36.00
2022-08-07T12:07:20.399Z,36.10
2022-08-07T12:10:09.494Z,36.60
2022-08-07T12:13:35.571Z,36.70
2022-08-07T12:16:28.884Z,36.70
2022-08-07T12:18:58.220Z,36.50
2022-08-07T12:22:37.368Z,36.70
2022-08-07T12:25:17.899Z,36.90
2022-08-07T12:28:11.926Z,36.50
2022-08-07T12:30:46.778Z,35.70
2022-08-07T12:33:28.053Z,35.00
2022-08-07T12:36:02.372Z,34.60
2022-08-07T12:38:42.844Z,34.30
2022-08-07T12:41:16.426Z,34.00
2022-08-07T12:44:04.583Z,34.00
2022-08-07T12:46:55.669Z,34.20
2022-08-07T12:50:33.929Z,34.10
2022-08-07T12:53:19.186Z,34.20
2022-08-07T12:56:03.588Z,34.20
2022-08-07T12:58:40.511Z,33.60
2022-08-07T13:01:50.664Z,33.30
2022-08-07T13:05:01.724Z,33.40
2022-08-07T13:08:14.336Z,33.90
2022-08-07T13:11:26.844Z,34.00
2022-08-07T13:14:29.211Z,33.80
2022-08-07T13:17:40.871Z,33.50
2022-08-07T13:20:21.691Z,33.40
2022-08-07T13:24:00.178Z,33.20
2022-08-07T13:26:08.269Z,33.20
2022-08-07T13:28:58.281Z,33.00
2022-08-07T13:31:46.033Z,32.90
2022-08-07T13:34:50.811Z,33.00
2022-08-07T13:38:04.511Z,33.20
2022-08-07T13:40:42.293Z,33.20
2022-08-07T13:43:16.130Z,33.30
2022-08-07T13:46:11.416Z,33.20
2022-08-07T13:48:58.273Z,32.80
2022-08-07T13:52:22.662Z,32.60
2022-08-07T13:54:29.497Z,32.40
2022-08-07T13:57:03.824Z,32.30
2022-08-07T13:59:34.254Z,32.20
2022-08-07T14:02:15.362Z,32.00
2022-08-07T14:04:50.179Z,32.00
2022-08-07T14:07:29.350Z,31.90
2022-08-07T14:10:02.035Z,31.90
2022-08-07T14:12:56.063Z,31.90
2022-08-07T14:15:35.321Z,31.90
2022-08-07T14:18:28.446Z,31.90
2022-08-07T14:21:21.071Z,31.80
2022-08-07T14:24:51.397Z,31.50
2022-08-07T14:28:16.908Z,31.50
2022-08-07T14:30:52.353Z,30.60
2022-08-07T14:33:23.496Z,30.00
2022-08-07T14:35:57.422Z,29.70
2022-08-07T14:38:31.671Z,29.70
2022-08-07T14:41:12.414Z,29.90
2022-08-07T14:46:38.136Z,28.90
2022-08-07T14:49:56.649Z,29.00
2022-08-07T14:52:12.768Z,29.20
2022-08-07T14:54:45.062Z,28.80
2022-08-07T14:57:19.669Z,28.90
2022-08-07T15:00:06.125Z,29.00
2022-08-07T15:02:39.448Z,29.20
2022-08-07T15:05:19.988Z,29.40
2022-08-07T15:07:51.763Z,29.60
2022-08-07T15:10:58.731Z,29.70
2022-08-07T15:16:33.600Z,30.00
2022-08-07T15:19:07.151Z,30.00
2022-08-07T15:21:59.462Z,30.10
2022-08-07T15:27:29.089Z,30.10
2022-08-07T15:30:14.398Z,30.10
2022-08-07T15:33:01.184Z,30.00
2022-08-07T15:36:01.386Z,30.10
2022-08-07T15:38:33.164Z,30.30
2022-08-07T15:41:23.954Z,29.90
2022-08-07T15:44:15.405Z,29.70
2022-08-07T15:46:51.691Z,29.50
2022-08-07T15:50:05.252Z,29.50
2022-08-07T15:52:29.978Z,29.50
2022-08-07T15:55:03.417Z,29.30
2022-08-07T15:57:47.977Z,29.30
2022-08-07T16:00:31.503Z,29.20
2022-08-07T16:03:04.810Z,29.10
2022-08-07T16:05:34.876Z,29.10
2022-08-07T16:08:31.069Z,29.20
2022-08-07T16:11:27.170Z,29.30
2022-08-07T16:14:33.672Z,29.30
2022-08-07T16:18:02.918Z,29.30
2022-08-07T16:20:44.137Z,29.50
2022-08-07T16:24:09.126Z,29.70
2022-08-07T16:26:59.328Z,29.70
2022-08-07T16:30:10.316Z,29.90
2022-08-07T16:34:02.031Z,29.90
2022-08-07T16:37:02.044Z,29.90
2022-08-07T16:39:48.951Z,29.90
2022-08-07T16:42:49.429Z,29.90
2022-08-07T16:46:33.087Z,29.80
2022-08-07T16:49:10.465Z,29.80
2022-08-07T16:51:57.527Z,29.90
2022-08-07T16:55:08.522Z,29.90
2022-08-07T16:58:19.141Z,29.70
2022-08-07T17:01:07.841Z,29.50
2022-08-07T17:03:57.897Z,29.40
2022-08-07T17:07:10.164Z,29.40
2022-08-07T17:10:06.974Z,29.30
2022-08-07T17:13:04.471Z,28.70
2022-08-07T17:15:44.210Z,28.30
2022-08-07T17:18:40.058Z,28.30
2022-08-07T17:21:50.827Z,28.10
2022-08-07T17:24:35.230Z,28.10
2022-08-07T17:27:20.090Z,28.30
2022-08-07T17:30:15.686Z,28.30
2022-08-07T17:33:02.474Z,27.90
2022-08-07T17:35:55.128Z,27.10
2022-08-07T17:38:39.838Z,27.10
2022-08-07T17:42:02.859Z,26.80
2022-08-07T17:44:41.443Z,26.40
2022-08-07T17:47:54.078Z,25.60
2022-08-07T17:50:46.959Z,25.00
2022-08-07T17:54:02.236Z,24.60
2022-08-07T17:56:49.999Z,24.40
2022-08-07T17:59:50.444Z,23.90
2022-08-07T18:02:41.230Z,23.60
2022-08-07T18:06:01.558Z,23.60
2022-08-07T18:08:33.112Z,23.90
2022-08-07T18:12:06.914Z,24.30
2022-08-07T18:14:46.566Z,24.60
2022-08-07T18:18:39.834Z,24.90
2022-08-07T18:21:37.425Z,24.80
2022-08-07T18:24:36.097Z,24.60
2022-08-07T18:27:39.268Z,24.60
2022-08-07T18:30:32.389Z,24.80
2022-08-07T18:33:39.024Z,25.00
2022-08-07T18:36:44.154Z,25.20
2022-08-07T18:40:08.359Z,25.20
2022-08-07T18:43:10.747Z,25.20
2022-08-07T18:46:25.646Z,25.00
2022-08-07T18:50:05.245Z,24.60
2022-08-07T18:52:40.961Z,24.30
2022-08-07T18:55:40.905Z,23.80
2022-08-07T18:58:33.609Z,23.60
2022-08-07T19:02:17.300Z,23.60
2022-08-07T19:04:03.863Z,23.80
2022-08-07T19:07:34.561Z,24.00
2022-08-07T19:10:21.906Z,24.20
2022-08-07T19:13:21.768Z,24.20
2022-08-07T19:17:01.161Z,24.40
2022-08-07T19:19:13.195Z,24.50
2022-08-07T19:21:58.432Z,24.50
2022-08-07T19:24:48.000Z,24.70
2022-08-07T19:28:58.136Z,24.80
2022-08-07T19:31:05.748Z,25.00
2022-08-07T19:33:10.170Z,25.00
2022-08-07T19:35:42.697Z,25.10
2022-08-07T19:38:17.439Z,25.00
2022-08-07T19:40:50.230Z,25.00
2022-08-07T19:43:49.271Z,25.00
2022-08-07T19:46:17.937Z,25.00
2022-08-07T19:48:57.306Z,25.10
2022-08-07T19:51:51.853Z,25.10
2022-08-07T19:54:32.521Z,25.00
2022-08-07T19:58:03.204Z,25.20
2022-08-07T20:00:10.380Z,25.20
2022-08-07T20:02:53.478Z,25.20
2022-08-07T20:05:28.895Z,25.00
2022-08-07T20:08:02.317Z,24.80
2022-08-07T20:10:55.057Z,24.80
2022-08-07T20:13:32.102Z,24.90
2022-08-07T20:16:03.457Z,24.90
2022-08-07T20:18:34.775Z,24.90
2022-08-07T20:21:20.918Z,24.80
2022-08-07T20:24:00.447Z,24.80
2022-08-07T20:26:44.858Z,24.50
2022-08-07T20:29:47.658Z,24.40
2022-08-07T20:32:11.632Z,24.20
2022-08-07T20:34:53.107Z,24.10
2022-08-07T20:37:46.865Z,24.00
2022-08-07T20:40:33.148Z,23.90
2022-08-07T20:43:09.385Z,23.50
2022-08-07T20:46:27.636Z,23.30
2022-08-07T20:48:33.864Z,23.10
2022-08-07T20:51:04.293Z,22.80
2022-08-07T20:54:04.701Z,22.80
2022-08-07T20:56:30.439Z,22.80
2022-08-07T20:59:05.376Z,22.90
2022-08-07T21:01:45.289Z,23.10
2022-08-07T21:04:22.706Z,23.40
2022-08-07T21:06:56.870Z,23.80
2022-08-07T21:09:51.924Z,24.00
2022-08-07T21:12:30.806Z,24.00
2022-08-07T21:15:03.603Z,24.10
2022-08-07T21:18:09.149Z,24.00
2022-08-07T21:20:33.151Z,24.00
2022-08-07T21:23:09.083Z,24.00
2022-08-07T21:25:56.113Z,23.90
2022-08-07T21:28:49.097Z,23.80
2022-08-07T21:32:47.037Z,23.80
2022-08-07T21:35:11.208Z,23.60
2022-08-07T21:37:59.518Z,23.60
2022-08-07T21:40:38.966Z,23.60
2022-08-07T21:43:11.345Z,23.60
2022-08-07T21:46:08.429Z,23.80
2022-08-07T21:48:41.812Z,23.90
2022-08-07T21:51:19.770Z,23.70
2022-08-07T21:53:55.166Z,23.50
2022-08-07T21:56:49.296Z,23.40
2022-08-07T22:00:04.578Z,23.50
2022-08-07T22:02:44.851Z,23.50
2022-08-07T22:05:21.678Z,23.40
2022-08-07T22:08:06.769Z,23.30
2022-08-07T22:10:42.457Z,23.40
2022-08-07T22:13:14.579Z,23.20
2022-08-07T22:16:43.245Z,23.00
2022-08-07T22:18:52.410Z,22.30
2022-08-07T22:22:01.711Z,22.20
2022-08-07T22:25:08.253Z,22.50
2022-08-07T22:28:29.975Z,22.80
2022-08-07T22:30:57.172Z,23.10
2022-08-07T22:33:56.299Z,23.00
2022-08-07T22:36:55.900Z,22.50
2022-08-07T22:39:52.988Z,22.10
2022-08-07T22:42:52.451Z,22.30
2022-08-07T22:46:40.725Z,22.50
2022-08-07T22:49:06.527Z,22.60
2022-08-07T22:52:34.850Z,22.90
2022-08-07T22:55:22.557Z,23.20
2022-08-07T22:58:03.194Z,23.40
2022-08-07T23:01:08.427Z,23.50
2022-08-07T23:03:58.031Z,23.50
2022-08-07T23:06:55.281Z,23.50
2022-08-07T23:10:04.075Z,23.60
2022-08-07T23:12:56.705Z,23.60
2022-08-07T23:16:05.363Z,23.50
2022-08-07T23:19:19.446Z,23.30
2022-08-07T23:22:32.621Z,23.20
2022-08-07T23:25:38.923Z,23.10
2022-08-07T23:28:44.324Z,23.00
2022-08-07T23:34:19.026Z,23.00
2022-08-07T23:35:01.176Z,22.80
2022-08-07T23:38:00.331Z,22.10
2022-08-07T23:40:50.885Z,21.90
2022-08-07T23:43:37.917Z,22.00
2022-08-07T23:46:19.940Z,22.20
2022-08-07T23:49:15.396Z,22.50
2022-08-07T23:52:59.938Z,22.70
2022-08-07T23:55:10.371Z,22.70
2022-08-07T23:58:01.327Z,22.50
